Time;durP1;ratioP1;P1;durP2;ratioP2;P2;SDS_P1;SDS_P2;PMS_P1;PMS_P2;Temp;Humidity;BMP_temperature;BMP_pressure;BME280_temperature;BME280_humidity;BME280_pressure;Samples;Min_cycle;Max_cycle;Signal;HPM_P1;HPM_P2
2022/06/29 00:00:40;;;;;;;;;;;22.80;69.80;;;;;;5034804;28;20387;-51
2022/06/29 00:03:24;;;;;;;;;;;22.70;70.30;;;;;;5035336;28;19955;-54
2022/06/29 00:06:08;;;;;;;;;;;22.70;70.80;;;;;;5034040;28;19919;-49
2022/06/29 00:08:53;;;;;;;;;;;22.70;71.30;;;;;;5034889;28;20395;-49
2022/06/29 00:11:37;;;;;;;;;;;22.60;71.90;;;;;;4999952;28;19924;-52
2022/06/29 00:14:21;;;;;;;;;;;22.50;72.20;;;;;;5017319;28;19923;-52
2022/06/29 00:17:05;;;;;;;;;;;22.40;72.80;;;;;;5033745;28;19968;-50
2022/06/29 00:19:50;;;;;;;;;;;22.40;73.30;;;;;;5034220;28;19920;-53
2022/06/29 00:22:35;;;;;;;;;;;22.20;73.80;;;;;;5033475;28;19913;-50
2022/06/29 00:25:19;;;;;;;;;;;22.20;74.10;;;;;;5032364;28;19916;-51
2022/06/29 00:28:04;;;;;;;;;;;22.10;74.60;;;;;;5033375;28;19935;-54
2022/06/29 00:30:48;;;;;;;;;;;22.10;74.80;;;;;;5034424;28;19928;-51
2022/06/29 00:33:32;;;;;;;;;;;22.10;75.00;;;;;;5035523;28;19934;-53
2022/06/29 00:36:16;;;;;;;;;;;22.10;75.30;;;;;;5034428;28;19935;-51
2022/06/29 00:39:01;;;;;;;;;;;22.10;75.30;;;;;;4995497;28;1137943;-55
2022/06/29 00:41:45;;;;;;;;;;;22.10;75.90;;;;;;5035045;28;19951;-50
2022/06/29 00:44:29;;;;;;;;;;;22.00;76.10;;;;;;5051110;28;19912;-52
2022/06/29 00:47:13;;;;;;;;;;;22.00;76.50;;;;;;5034491;28;20288;-49
2022/06/29 00:49:58;;;;;;;;;;;22.00;77.00;;;;;;5034846;28;19928;-52
2022/06/29 00:52:43;;;;;;;;;;;22.00;77.20;;;;;;5034988;28;19997;-51
2022/06/29 00:55:28;;;;;;;;;;;21.90;77.60;;;;;;5034805;28;20287;-52
2022/06/29 00:58:14;;;;;;;;;;;21.80;78.00;;;;;;5035130;28;20020;-52
2022/06/29 01:01:01;;;;;;;;;;;21.90;78.20;;;;;;5036254;28;19959;-50
2022/06/29 01:03:45;;;;;;;;;;;21.90;78.20;;;;;;5056810;28;19928;-53
2022/06/29 01:06:30;;;;;;;;;;;21.90;78.20;;;;;;5018287;28;19970;-50
2022/06/29 01:09:14;;;;;;;;;;;21.90;78.50;;;;;;5034856;28;20323;-51
2022/06/29 01:11:58;;;;;;;;;;;21.90;78.70;;;;;;5034708;28;19975;-50
2022/06/29 01:14:44;;;;;;;;;;;21.90;78.90;;;;;;5034552;28;20346;-50
2022/06/29 01:17:28;;;;;;;;;;;21.90;79.10;;;;;;5033991;28;19951;-51
2022/06/29 01:20:13;;;;;;;;;;;21.80;79.40;;;;;;5020159;28;19931;-51
2022/06/29 01:22:57;;;;;;;;;;;21.70;79.80;;;;;;5034849;28;19983;-53
2022/06/29 01:25:42;;;;;;;;;;;21.80;79.90;;;;;;5034691;28;19967;-54
2022/06/29 01:28:26;;;;;;;;;;;21.80;80.00;;;;;;5034011;28;19920;-53
2022/06/29 01:31:14;;;;;;;;;;;21.80;80.00;;;;;;5019510;28;20407;-52
2022/06/29 01:34:00;;;;;;;;;;;21.80;80.30;;;;;;5034729;28;20066;-52
2022/06/29 01:36:44;;;;;;;;;;;21.70;80.50;;;;;;5033780;28;20359;-54
2022/06/29 01:39:29;;;;;;;;;;;21.80;80.80;;;;;;5034453;28;20295;-49
2022/06/29 01:42:13;;;;;;;;;;;21.80;81.10;;;;;;5035430;28;19932;-55
2022/06/29 01:44:58;;;;;;;;;;;21.70;81.20;;;;;;5036767;28;19919;-55
2022/06/29 01:47:42;;;;;;;;;;;21.60;81.70;;;;;;5037844;28;20424;-53
2022/06/29 01:50:26;;;;;;;;;;;21.60;82.00;;;;;;5036180;28;20288;-53
2022/06/29 01:53:10;;;;;;;;;;;21.60;82.30;;;;;;5035809;28;20267;-51
2022/06/29 01:55:54;;;;;;;;;;;21.50;82.70;;;;;;5034686;28;19915;-51
2022/06/29 01:58:38;;;;;;;;;;;21.40;83.00;;;;;;5024826;28;19969;-50
2022/06/29 02:01:23;;;;;;;;;;;21.40;83.00;;;;;;5054329;28;19916;-48
2022/06/29 02:04:07;;;;;;;;;;;21.30;83.50;;;;;;5036294;28;19916;-51
2022/06/29 02:06:51;;;;;;;;;;;21.30;83.70;;;;;;5034877;28;20330;-54
2022/06/29 02:09:36;;;;;;;;;;;21.30;83.90;;;;;;5014612;28;20392;-50
2022/06/29 02:12:20;;;;;;;;;;;21.30;84.00;;;;;;5028084;28;19935;-52
2022/06/29 02:15:05;;;;;;;;;;;21.30;84.10;;;;;;5034041;28;19967;-52
2022/06/29 02:17:49;;;;;;;;;;;21.40;84.20;;;;;;5033883;28;19920;-52
2022/06/29 02:20:33;;;;;;;;;;;21.40;84.10;;;;;;5035343;28;19939;-52
2022/06/29 02:23:18;;;;;;;;;;;21.40;84.10;;;;;;5034516;28;20004;-52
2022/06/29 02:26:02;;;;;;;;;;;21.30;84.40;;;;;;5034510;28;19955;-53
2022/06/29 02:28:46;;;;;;;;;;;21.30;84.60;;;;;;5034672;28;19936;-49
2022/06/29 02:34:49;;;;;;;;;;;21.20;85.10;;;;;;5033696;28;19913;-47
2022/06/29 02:37:33;;;;;;;;;;;21.10;85.80;;;;;;5034415;28;19959;-48
2022/06/29 02:40:17;;;;;;;;;;;21.10;86.10;;;;;;5035249;28;19911;-50
2022/06/29 02:43:02;;;;;;;;;;;21.20;86.10;;;;;;5033947;28;19995;-50
2022/06/29 02:45:46;;;;;;;;;;;21.10;86.30;;;;;;5034426;28;20256;-51
2022/06/29 02:48:32;;;;;;;;;;;21.10;86.60;;;;;;5033627;28;19967;-50
2022/06/29 02:51:17;;;;;;;;;;;21.10;86.90;;;;;;5033352;28;19916;-51
2022/06/29 02:54:01;;;;;;;;;;;21.00;86.90;;;;;;5033415;28;19912;-50
2022/06/29 02:56:45;;;;;;;;;;;21.00;87.20;;;;;;5032393;28;19955;-53
2022/06/29 02:59:30;;;;;;;;;;;21.00;87.50;;;;;;5033404;28;20322;-48
2022/06/29 03:02:14;;;;;;;;;;;21.00;87.70;;;;;;5033373;28;19920;-52
2022/06/29 03:04:59;;;;;;;;;;;20.90;88.40;;;;;;5033891;28;19971;-49
2022/06/29 03:07:44;;;;;;;;;;;20.90;88.50;;;;;;5033487;28;19912;-53
2022/06/29 03:10:28;;;;;;;;;;;20.70;89.20;;;;;;5033758;28;19919;-51
2022/06/29 03:13:13;;;;;;;;;;;20.70;89.60;;;;;;5033951;28;19916;-53
2022/06/29 03:15:57;;;;;;;;;;;20.70;89.60;;;;;;5033039;28;19963;-52
2022/06/29 03:18:41;;;;;;;;;;;20.70;90.10;;;;;;5033953;28;20252;-51
2022/06/29 03:21:25;;;;;;;;;;;20.60;90.10;;;;;;5033325;28;20011;-49
2022/06/29 03:24:09;;;;;;;;;;;20.60;90.40;;;;;;5033450;28;19963;-54
2022/06/29 03:26:53;;;;;;;;;;;20.60;90.60;;;;;;5012694;28;20288;-49
2022/06/29 03:29:38;;;;;;;;;;;20.60;90.70;;;;;;5015339;28;19916;-51
2022/06/29 03:32:22;;;;;;;;;;;20.60;91.00;;;;;;5032594;28;19936;-53
2022/06/29 03:35:06;;;;;;;;;;;20.50;91.10;;;;;;5031535;28;20300;-53
2022/06/29 03:37:51;;;;;;;;;;;20.60;91.20;;;;;;5032162;28;19939;-49
2022/06/29 03:40:35;;;;;;;;;;;20.60;91.20;;;;;;5032742;28;19915;-55
2022/06/29 03:43:19;;;;;;;;;;;20.60;91.20;;;;;;5040300;28;19911;-48
2022/06/29 03:46:03;;;;;;;;;;;20.60;91.30;;;;;;5039914;28;19963;-53
2022/06/29 03:48:48;;;;;;;;;;;20.60;91.30;;;;;;5032026;28;20423;-51
2022/06/29 03:51:33;;;;;;;;;;;20.60;91.50;;;;;;5032215;28;19919;-55
2022/06/29 03:54:17;;;;;;;;;;;20.60;91.50;;;;;;5032382;28;19920;-50
2022/06/29 03:57:01;;;;;;;;;;;20.70;91.30;;;;;;5030286;28;20287;-54
2022/06/29 03:59:46;;;;;;;;;;;20.70;91.50;;;;;;5032587;28;19911;-55
2022/06/29 04:02:30;;;;;;;;;;;20.80;91.30;;;;;;5032364;28;19915;-50
2022/06/29 04:05:14;;;;;;;;;;;20.90;91.40;;;;;;5032423;28;19967;-53
2022/06/29 04:07:58;;;;;;;;;;;20.90;91.20;;;;;;5017394;28;19982;-52
2022/06/29 04:10:42;;;;;;;;;;;20.90;91.20;;;;;;5033071;28;19975;-52
2022/06/29 04:13:27;;;;;;;;;;;20.90;91.50;;;;;;5034704;28;20291;-50
2022/06/29 04:16:11;;;;;;;;;;;20.90;91.50;;;;;;5035499;28;20438;-49
2022/06/29 04:18:55;;;;;;;;;;;21.00;91.50;;;;;;5035955;28;19916;-49
2022/06/29 04:21:39;;;;;;;;;;;21.00;91.60;;;;;;5036578;28;19932;-55
2022/06/29 04:24:24;;;;;;;;;;;21.00;92.00;;;;;;5036893;28;19923;-53
2022/06/29 04:27:08;;;;;;;;;;;21.00;91.80;;;;;;5035431;28;19919;-54
2022/06/29 04:29:52;;;;;;;;;;;21.00;91.80;;;;;;5036455;28;20387;-51
2022/06/29 04:32:36;;;;;;;;;;;21.00;91.80;;;;;;5035632;28;20446;-50
2022/06/29 04:35:21;;;;;;;;;;;21.00;91.80;;;;;;5035205;28;19924;-54
2022/06/29 04:38:05;;;;;;;;;;;21.00;92.00;;;;;;5035339;28;19932;-53
2022/06/29 04:40:49;;;;;;;;;;;21.00;92.10;;;;;;5000757;28;19944;-49
2022/06/29 04:43:33;;;;;;;;;;;21.10;92.10;;;;;;5028596;28;19982;-53
2022/06/29 04:46:21;;;;;;;;;;;21.10;92.10;;;;;;5034319;28;19932;-52
2022/06/29 04:49:05;;;;;;;;;;;21.10;92.10;;;;;;5033876;28;20323;-56
2022/06/29 04:51:49;;;;;;;;;;;21.10;92.20;;;;;;5034314;28;19967;-54
2022/06/29 04:54:33;;;;;;;;;;;21.10;92.30;;;;;;5034170;28;19935;-50
2022/06/29 04:57:17;;;;;;;;;;;21.10;92.40;;;;;;5034418;28;19916;-53
2022/06/29 05:00:01;;;;;;;;;;;21.20;92.40;;;;;;5034916;28;19916;-53
2022/06/29 05:02:46;;;;;;;;;;;21.30;92.40;;;;;;5012818;28;19977;-54
2022/06/29 05:05:30;;;;;;;;;;;21.30;92.40;;;;;;5030731;28;19916;-51
2022/06/29 05:08:14;;;;;;;;;;;21.30;92.50;;;;;;5034405;28;19927;-50
2022/06/29 05:10:58;;;;;;;;;;;21.20;92.80;;;;;;5033930;28;20070;-51
2022/06/29 05:13:43;;;;;;;;;;;21.30;92.80;;;;;;5033816;28;20383;-52
2022/06/29 05:16:27;;;;;;;;;;;21.30;93.10;;;;;;5033764;28;19915;-51
2022/06/29 05:19:11;;;;;;;;;;;21.30;93.20;;;;;;5029950;28;19916;-50
2022/06/29 05:21:56;;;;;;;;;;;21.30;93.30;;;;;;5034669;28;19955;-49
2022/06/29 05:24:40;;;;;;;;;;;21.40;93.30;;;;;;5033931;28;19985;-55
2022/06/29 05:27:24;;;;;;;;;;;21.40;93.40;;;;;;5033563;28;19971;-54
2022/06/29 05:30:09;;;;;;;;;;;21.40;93.40;;;;;;5034361;28;19960;-48
2022/06/29 05:32:53;;;;;;;;;;;21.50;93.80;;;;;;5034520;28;20303;-53
2022/06/29 05:35:37;;;;;;;;;;;21.50;93.60;;;;;;5034636;28;19928;-50
2022/06/29 05:38:21;;;;;;;;;;;21.60;93.50;;;;;;5034076;28;19944;-53
2022/06/29 05:41:05;;;;;;;;;;;21.60;93.50;;;;;;5034288;28;19917;-53
2022/06/29 05:43:51;;;;;;;;;;;21.70;93.70;;;;;;5045380;28;19915;-54
2022/06/29 05:46:35;;;;;;;;;;;21.70;93.90;;;;;;5053798;28;19916;-54
2022/06/29 05:49:19;;;;;;;;;;;21.70;93.90;;;;;;5034406;28;19920;-52
2022/06/29 05:52:04;;;;;;;;;;;21.70;94.20;;;;;;5018608;28;19936;-52
2022/06/29 05:54:48;;;;;;;;;;;21.70;94.30;;;;;;5034140;28;19920;-50
2022/06/29 05:57:33;;;;;;;;;;;21.70;94.50;;;;;;5033574;28;20452;-50
2022/06/29 06:00:19;;;;;;;;;;;21.80;94.50;;;;;;5033820;28;20052;-54
2022/06/29 06:03:03;;;;;;;;;;;21.80;94.60;;;;;;5033671;28;19944;-53
2022/06/29 06:05:47;;;;;;;;;;;21.80;94.70;;;;;;5033545;28;19916;-56
2022/06/29 06:08:32;;;;;;;;;;;21.80;94.90;;;;;;5034188;28;19920;-50
2022/06/29 06:11:16;;;;;;;;;;;21.80;95.10;;;;;;5033830;28;19915;-53
2022/06/29 06:14:00;;;;;;;;;;;21.70;95.30;;;;;;5033456;28;20422;-50
2022/06/29 06:16:44;;;;;;;;;;;21.70;95.40;;;;;;5032751;28;19916;-53
2022/06/29 06:19:28;;;;;;;;;;;21.70;95.70;;;;;;5034201;28;19931;-50
2022/06/29 06:22:13;;;;;;;;;;;21.70;95.80;;;;;;5033982;28;19920;-50
2022/06/29 06:24:57;;;;;;;;;;;21.80;95.80;;;;;;5033822;28;19916;-52
2022/06/29 06:27:41;;;;;;;;;;;21.80;95.90;;;;;;5034537;28;19971;-55
2022/06/29 06:30:25;;;;;;;;;;;21.80;96.10;;;;;;5035789;28;20011;-56
2022/06/29 06:33:10;;;;;;;;;;;21.80;96.20;;;;;;5035321;28;19931;-52
2022/06/29 06:35:55;;;;;;;;;;;21.80;96.30;;;;;;5032874;28;19916;-54
2022/06/29 06:38:39;;;;;;;;;;;21.70;96.70;;;;;;5033235;28;20007;-56
2022/06/29 06:41:23;;;;;;;;;;;21.70;96.80;;;;;;5033837;28;19920;-56
2022/06/29 06:44:07;;;;;;;;;;;21.70;97.00;;;;;;5033984;28;19912;-53
2022/06/29 06:46:51;;;;;;;;;;;21.70;97.00;;;;;;5032586;28;19920;-54
2022/06/29 06:49:36;;;;;;;;;;;21.70;97.10;;;;;;5033272;28;19915;-54
2022/06/29 06:52:20;;;;;;;;;;;21.80;97.20;;;;;;5018498;28;19932;-58
2022/06/29 06:55:04;;;;;;;;;;;21.80;97.30;;;;;;5033072;28;19959;-52
2022/06/29 06:57:48;;;;;;;;;;;21.80;97.40;;;;;;5033028;28;19978;-50
2022/06/29 07:00:32;;;;;;;;;;;21.80;97.50;;;;;;5033094;28;20008;-52
2022/06/29 07:03:16;;;;;;;;;;;21.90;97.50;;;;;;5033243;28;19963;-51
2022/06/29 07:06:04;;;;;;;;;;;21.90;97.40;;;;;;5013597;28;19964;-57
2022/06/29 07:08:49;;;;;;;;;;;22.00;97.30;;;;;;5017188;28;20019;-55
2022/06/29 07:11:33;;;;;;;;;;;22.10;97.20;;;;;;5018805;28;20406;-49
2022/06/29 07:14:17;;;;;;;;;;;22.10;97.10;;;;;;5032803;28;19916;-49
2022/06/29 07:17:01;;;;;;;;;;;22.10;97.10;;;;;;5032964;28;19919;-54
2022/06/29 07:19:46;;;;;;;;;;;22.10;97.30;;;;;;5014217;28;19963;-54
2022/06/29 07:22:30;;;;;;;;;;;22.10;97.30;;;;;;5016594;28;19933;-50
2022/06/29 07:25:14;;;;;;;;;;;22.20;97.30;;;;;;5033189;28;19971;-52
2022/06/29 07:27:58;;;;;;;;;;;22.20;97.30;;;;;;5035183;28;19979;-57
2022/06/29 07:30:42;;;;;;;;;;;22.20;97.40;;;;;;5036264;28;20010;-55
2022/06/29 07:33:27;;;;;;;;;;;22.20;97.40;;;;;;5034782;28;19920;-58
2022/06/29 07:36:11;;;;;;;;;;;22.00;97.50;;;;;;5020386;28;19920;-56
2022/06/29 07:38:55;;;;;;;;;;;21.90;97.70;;;;;;5033796;28;19988;-56
2022/06/29 07:41:41;;;;;;;;;;;21.90;97.80;;;;;;5034313;28;19923;-53
2022/06/29 07:44:25;;;;;;;;;;;21.90;97.80;;;;;;5035415;28;19920;-54
2022/06/29 07:47:09;;;;;;;;;;;22.00;97.80;;;;;;5032274;28;19997;-56
2022/06/29 07:49:54;;;;;;;;;;;22.00;97.80;;;;;;5020551;28;20497;-56
2022/06/29 07:52:39;;;;;;;;;;;22.10;97.60;;;;;;5036327;28;20008;-53
2022/06/29 07:55:24;;;;;;;;;;;22.10;97.60;;;;;;5036224;28;19916;-57
2022/06/29 07:58:08;;;;;;;;;;;22.00;97.60;;;;;;5035367;28;19920;-55
2022/06/29 08:00:53;;;;;;;;;;;22.00;97.70;;;;;;5036308;28;20355;-56
2022/06/29 08:03:38;;;;;;;;;;;22.10;97.70;;;;;;5035954;28;19952;-50
2022/06/29 08:06:22;;;;;;;;;;;22.00;98.00;;;;;;5037057;28;19912;-55
2022/06/29 08:09:06;;;;;;;;;;;22.10;98.20;;;;;;5022834;28;19920;-51
2022/06/29 08:11:51;;;;;;;;;;;22.20;98.20;;;;;;5037389;28;19967;-52
2022/06/29 08:14:35;;;;;;;;;;;22.20;98.40;;;;;;5037200;28;19916;-53
2022/06/29 08:17:19;;;;;;;;;;;22.40;98.50;;;;;;5020095;28;19968;-57
2022/06/29 08:20:04;;;;;;;;;;;22.50;98.60;;;;;;5036754;28;19912;-56
2022/06/29 08:22:48;;;;;;;;;;;22.60;98.50;;;;;;5036612;28;19963;-56
2022/06/29 08:25:32;;;;;;;;;;;22.60;98.30;;;;;;5036115;28;19924;-55
2022/06/29 08:28:16;;;;;;;;;;;22.60;98.00;;;;;;5028999;28;20284;-54
2022/06/29 08:31:00;;;;;;;;;;;22.60;98.10;;;;;;5035713;28;19924;-56
2022/06/29 08:33:45;;;;;;;;;;;22.60;98.10;;;;;;5036102;28;19981;-56
2022/06/29 08:36:30;;;;;;;;;;;22.50;98.30;;;;;;5036456;28;19967;-54
2022/06/29 08:39:14;;;;;;;;;;;22.50;98.40;;;;;;5035861;28;20284;-51
2022/06/29 08:42:04;;;;;;;;;;;22.40;98.30;;;;;;5036073;28;20289;-52
2022/06/29 08:44:49;;;;;;;;;;;22.30;98.20;;;;;;5034876;28;19959;-52
2022/06/29 08:47:33;;;;;;;;;;;22.30;98.30;;;;;;5036131;28;19936;-52
2022/06/29 08:50:18;;;;;;;;;;;22.30;98.10;;;;;;5034840;28;19920;-52
2022/06/29 08:53:02;;;;;;;;;;;22.30;98.10;;;;;;5035827;28;20030;-50
2022/06/29 08:55:48;;;;;;;;;;;22.30;98.20;;;;;;5035175;28;19915;-52
2022/06/29 08:58:33;;;;;;;;;;;22.30;97.50;;;;;;5030491;28;20023;-55
2022/06/29 09:01:18;;;;;;;;;;;22.30;97.10;;;;;;5035298;28;19920;-56
2022/06/29 09:04:02;;;;;;;;;;;22.20;97.00;;;;;;5035108;28;20359;-51
2022/06/29 09:06:51;;;;;;;;;;;22.20;97.30;;;;;;5034075;28;19997;-58
2022/06/29 09:09:54;;;;;;;;;;;22.20;97.40;;;;;;5035438;28;19916;-52
2022/06/29 09:12:39;;;;;;;;;;;22.20;97.30;;;;;;5036495;28;20187;-56
2022/06/29 09:15:31;;;;;;;;;;;22.20;96.90;;;;;;5034092;28;19915;-51
2022/06/29 09:18:26;;;;;;;;;;;22.20;97.20;;;;;;5033479;28;19934;-53
2022/06/29 09:21:10;;;;;;;;;;;22.40;97.10;;;;;;5033925;28;19916;-54
2022/06/29 09:23:54;;;;;;;;;;;22.40;96.80;;;;;;5035191;28;19935;-52
2022/06/29 09:26:38;;;;;;;;;;;22.30;96.70;;;;;;5034339;28;19923;-52
2022/06/29 09:29:27;;;;;;;;;;;22.40;96.60;;;;;;5034509;28;19955;-55
2022/06/29 09:32:12;;;;;;;;;;;22.40;96.50;;;;;;5034372;28;19928;-51
2022/06/29 09:34:59;;;;;;;;;;;22.50;96.50;;;;;;5034138;28;19935;-55
2022/06/29 09:37:43;;;;;;;;;;;22.40;96.20;;;;;;5054086;28;20002;-52
2022/06/29 09:40:28;;;;;;;;;;;22.50;96.20;;;;;;5047332;28;19974;-50
2022/06/29 09:43:12;;;;;;;;;;;22.40;96.80;;;;;;5019828;28;19959;-51
2022/06/29 09:45:57;;;;;;;;;;;22.40;97.00;;;;;;5034146;28;20458;-49
2022/06/29 09:48:42;;;;;;;;;;;22.40;96.60;;;;;;5034110;28;19960;-55
2022/06/29 09:51:32;;;;;;;;;;;22.40;96.30;;;;;;5034029;28;20288;-52
2022/06/29 09:54:18;;;;;;;;;;;22.40;96.20;;;;;;5035194;28;19916;-51
2022/06/29 09:57:03;;;;;;;;;;;22.50;95.80;;;;;;5034907;28;19915;-51
2022/06/29 10:03:11;;;;;;;;;;;22.60;95.10;;;;;;5041229;28;19920;-53
2022/06/29 10:05:55;;;;;;;;;;;22.60;94.80;;;;;;5041576;28;19959;-53
2022/06/29 10:08:39;;;;;;;;;;;22.60;94.60;;;;;;5034864;28;19943;-55
2022/06/29 10:15:19;;;;;;;;;;;22.90;94.10;;;;;;5034014;28;20398;-50
2022/06/29 10:18:12;;;;;;;;;;;23.10;94.10;;;;;;5028042;28;19931;-55
2022/06/29 10:20:57;;;;;;;;;;;23.30;94.10;;;;;;5033511;28;19924;-53
2022/06/29 10:23:44;;;;;;;;;;;23.40;94.00;;;;;;5034704;28;20383;-55
2022/06/29 10:26:30;;;;;;;;;;;23.20;94.20;;;;;;5033976;28;19916;-55
2022/06/29 10:29:17;;;;;;;;;;;23.20;94.30;;;;;;5035174;28;19916;-51
2022/06/29 10:32:05;;;;;;;;;;;23.40;94.30;;;;;;5040192;28;19916;-55
2022/06/29 10:35:06;;;;;;;;;;;23.50;94.00;;;;;;5033952;28;19916;-52
2022/06/29 10:37:52;;;;;;;;;;;23.50;93.80;;;;;;5033311;28;19973;-50
2022/06/29 10:40:36;;;;;;;;;;;23.60;93.20;;;;;;5034091;28;19916;-54
2022/06/29 10:43:20;;;;;;;;;;;23.50;92.50;;;;;;5038249;28;19920;-50
2022/06/29 10:46:05;;;;;;;;;;;23.40;92.70;;;;;;5033695;28;20363;-52
2022/06/29 10:49:12;;;;;;;;;;;23.50;92.50;;;;;;5033664;28;19920;-54
2022/06/29 10:51:57;;;;;;;;;;;23.70;92.30;;;;;;5032914;28;19915;-56
2022/06/29 10:54:41;;;;;;;;;;;23.80;91.80;;;;;;5033320;28;19963;-53
2022/06/29 10:57:26;;;;;;;;;;;23.80;92.10;;;;;;5033551;28;19928;-51
2022/06/29 11:00:16;;;;;;;;;;;24.00;92.10;;;;;;5035160;28;19920;-54
2022/06/29 11:03:27;;;;;;;;;;;24.20;91.60;;;;;;5034290;28;19912;-55
2022/06/29 11:12:18;;;;;;;;;;;25.20;91.10;;;;;;5033423;28;19921;-52
2022/06/29 11:18:12;;;;;;;;;;;25.40;90.00;;;;;;5032689;28;20271;-50
2022/06/29 11:21:03;;;;;;;;;;;25.20;90.10;;;;;;5028804;28;19971;-57
2022/06/29 11:23:54;;;;;;;;;;;24.80;90.30;;;;;;5036310;28;19959;-51
2022/06/29 11:26:38;;;;;;;;;;;24.80;90.40;;;;;;5037190;28;19912;-53
2022/06/29 11:29:23;;;;;;;;;;;24.90;90.30;;;;;;5037748;28;19920;-55
2022/06/29 11:32:07;;;;;;;;;;;25.00;90.20;;;;;;5036858;28;19920;-56
2022/06/29 11:34:57;;;;;;;;;;;25.00;90.10;;;;;;5045912;28;19938;-52
2022/06/29 11:37:45;;;;;;;;;;;24.90;90.00;;;;;;5056201;28;19931;-54
2022/06/29 11:40:41;;;;;;;;;;;24.70;90.50;;;;;;5017312;28;19917;-51
2022/06/29 11:43:25;;;;;;;;;;;24.70;90.50;;;;;;5035952;28;20020;-53
2022/06/29 11:46:22;;;;;;;;;;;24.80;90.60;;;;;;5036367;28;20355;-53
2022/06/29 11:52:16;;;;;;;;;;;24.30;91.20;;;;;;5036637;28;20494;-51
2022/06/29 11:55:01;;;;;;;;;;;24.60;90.90;;;;;;5037290;28;19920;-55
2022/06/29 11:57:56;;;;;;;;;;;24.80;90.70;;;;;;5035559;28;19916;-52
2022/06/29 12:00:42;;;;;;;;;;;24.90;90.80;;;;;;5036474;28;19931;-56
2022/06/29 12:03:27;;;;;;;;;;;25.00;90.60;;;;;;5037749;28;19931;-51
2022/06/29 12:06:11;;;;;;;;;;;25.00;90.60;;;;;;5037018;28;20288;-54
2022/06/29 12:08:55;;;;;;;;;;;24.90;90.70;;;;;;5016632;28;20447;-55
2022/06/29 12:11:40;;;;;;;;;;;24.70;91.00;;;;;;5019218;28;19920;-55
2022/06/29 12:14:24;;;;;;;;;;;24.40;91.40;;;;;;5036565;28;19916;-52
2022/06/29 12:17:09;;;;;;;;;;;24.40;91.50;;;;;;5035160;28;19967;-53
2022/06/29 12:19:53;;;;;;;;;;;24.60;91.30;;;;;;5036260;28;19959;-52
2022/06/29 12:22:38;;;;;;;;;;;24.60;91.20;;;;;;5035566;28;19920;-53
2022/06/29 12:25:22;;;;;;;;;;;24.60;91.10;;;;;;5034618;28;19940;-54
2022/06/29 12:28:06;;;;;;;;;;;24.80;91.30;;;;;;5035049;28;20279;-56
2022/06/29 12:30:53;;;;;;;;;;;25.10;90.90;;;;;;5036043;28;19920;-53
2022/06/29 12:33:38;;;;;;;;;;;25.40;90.10;;;;;;5035781;28;19916;-51
2022/06/29 12:36:23;;;;;;;;;;;25.40;89.80;;;;;;5029339;28;20633;-53
2022/06/29 12:39:07;;;;;;;;;;;25.20;89.80;;;;;;5037417;28;19924;-53
2022/06/29 12:41:52;;;;;;;;;;;25.20;90.10;;;;;;5036883;28;19920;-54
2022/06/29 12:44:36;;;;;;;;;;;25.40;90.20;;;;;;5034859;28;20456;-54
2022/06/29 12:47:21;;;;;;;;;;;25.50;89.80;;;;;;5035630;28;19923;-54
2022/06/29 12:50:05;;;;;;;;;;;25.70;89.50;;;;;;5037470;28;19963;-53
2022/06/29 12:52:50;;;;;;;;;;;25.80;88.60;;;;;;5016769;28;19920;-54
2022/06/29 12:55:34;;;;;;;;;;;25.70;88.60;;;;;;5018009;28;20374;-54
2022/06/29 12:58:19;;;;;;;;;;;25.40;89.20;;;;;;5038398;28;19916;-53
2022/06/29 13:01:03;;;;;;;;;;;25.20;89.50;;;;;;5038949;28;20414;-54
2022/06/29 13:03:48;;;;;;;;;;;25.10;89.90;;;;;;5040388;28;20042;-55
2022/06/29 13:06:32;;;;;;;;;;;25.00;90.20;;;;;;5037692;28;19916;-54
2022/06/29 13:09:16;;;;;;;;;;;25.00;90.10;;;;;;5036352;28;19963;-52
2022/06/29 13:12:00;;;;;;;;;;;25.10;90.00;;;;;;5035821;28;19983;-52
2022/06/29 13:14:44;;;;;;;;;;;25.00;90.30;;;;;;5035592;28;19944;-55
2022/06/29 13:17:29;;;;;;;;;;;24.90;90.40;;;;;;5019861;28;19923;-53
2022/06/29 13:20:16;;;;;;;;;;;25.00;90.20;;;;;;5035749;28;20340;-52
2022/06/29 13:29:33;;;;;;;;;;;25.20;90.30;;;;;;4954032;29;19917;-55
2022/06/29 13:32:17;;;;;;;;;;;25.30;90.00;;;;;;5034631;28;19916;-52
2022/06/29 13:35:01;;;;;;;;;;;25.40;89.70;;;;;;5034053;28;20284;-58
2022/06/29 13:37:45;;;;;;;;;;;25.50;89.70;;;;;;5032639;28;19923;-54
2022/06/29 13:40:32;;;;;;;;;;;25.50;89.50;;;;;;5033572;28;19936;-51
2022/06/29 13:43:16;;;;;;;;;;;25.60;89.20;;;;;;5028161;28;19933;-52
2022/06/29 13:46:01;;;;;;;;;;;25.20;90.00;;;;;;5013251;28;19917;-52
2022/06/29 13:48:45;;;;;;;;;;;25.20;90.60;;;;;;5014407;28;19954;-56
2022/06/29 13:51:30;;;;;;;;;;;25.70;90.30;;;;;;5014970;28;20023;-54
2022/06/29 13:54:14;;;;;;;;;;;26.10;89.30;;;;;;5015299;28;19917;-54
2022/06/29 13:56:58;;;;;;;;;;;26.60;88.70;;;;;;5016203;28;19916;-52
2022/06/29 13:59:42;;;;;;;;;;;26.60;87.70;;;;;;5034919;28;20551;-53
2022/06/29 14:02:27;;;;;;;;;;;26.50;87.50;;;;;;5035627;28;19943;-54
2022/06/29 14:05:11;;;;;;;;;;;26.20;88.40;;;;;;5035646;28;20343;-56
2022/06/29 14:07:55;;;;;;;;;;;26.10;88.40;;;;;;5034197;28;20419;-53
2022/06/29 14:10:40;;;;;;;;;;;26.00;88.90;;;;;;5032904;28;19932;-54
2022/06/29 14:13:24;;;;;;;;;;;26.00;89.60;;;;;;5018376;28;19916;-54
2022/06/29 14:16:08;;;;;;;;;;;26.10;89.50;;;;;;5034253;28;19995;-56
2022/06/29 14:18:52;;;;;;;;;;;26.20;88.60;;;;;;5033723;28;19977;-52
2022/06/29 14:21:36;;;;;;;;;;;26.00;88.10;;;;;;5033970;28;19916;-53
2022/06/29 14:24:21;;;;;;;;;;;25.60;89.10;;;;;;5034153;28;20391;-52
2022/06/29 14:27:05;;;;;;;;;;;25.70;89.60;;;;;;5032641;28;19962;-52
2022/06/29 14:29:49;;;;;;;;;;;25.90;89.20;;;;;;5034322;28;19928;-53
2022/06/29 14:32:33;;;;;;;;;;;26.00;89.00;;;;;;5034438;28;19972;-50
2022/06/29 14:35:18;;;;;;;;;;;26.00;89.20;;;;;;5033726;28;19975;-57
2022/06/29 14:38:05;;;;;;;;;;;26.20;89.10;;;;;;5032953;28;19920;-57
2022/06/29 14:40:49;;;;;;;;;;;26.30;88.10;;;;;;5034737;28;19935;-53
2022/06/29 14:43:34;;;;;;;;;;;25.90;88.80;;;;;;5042285;28;19915;-55
2022/06/29 14:46:20;;;;;;;;;;;25.70;89.10;;;;;;5052420;28;20387;-54
2022/06/29 14:49:05;;;;;;;;;;;25.80;89.30;;;;;;5052673;28;19950;-50
2022/06/29 14:51:50;;;;;;;;;;;25.80;89.70;;;;;;5053019;28;19975;-53
2022/06/29 14:54:34;;;;;;;;;;;25.80;90.00;;;;;;5053369;28;19912;-55
2022/06/29 14:57:18;;;;;;;;;;;26.00;90.00;;;;;;5047555;28;19916;-56
2022/06/29 15:00:06;;;;;;;;;;;26.10;90.00;;;;;;5033317;28;19955;-54
2022/06/29 15:02:50;;;;;;;;;;;26.10;89.50;;;;;;5033211;28;19912;-54
2022/06/29 15:05:35;;;;;;;;;;;26.00;90.00;;;;;;5032619;28;19916;-56
2022/06/29 15:08:20;;;;;;;;;;;26.10;90.20;;;;;;5033227;28;19925;-55
2022/06/29 15:11:04;;;;;;;;;;;26.20;89.50;;;;;;5033120;28;19958;-53
2022/06/29 15:13:48;;;;;;;;;;;26.20;89.60;;;;;;5034229;28;19916;-55
2022/06/29 15:16:32;;;;;;;;;;;26.10;89.60;;;;;;5032480;28;19964;-53
2022/06/29 15:19:18;;;;;;;;;;;26.30;90.20;;;;;;5033167;28;19916;-51
2022/06/29 15:22:02;;;;;;;;;;;26.40;89.40;;;;;;5033022;28;20399;-56
2022/06/29 15:24:46;;;;;;;;;;;26.60;89.30;;;;;;5032622;28;19947;-55
2022/06/29 15:27:31;;;;;;;;;;;26.60;89.10;;;;;;5032607;28;20288;-57
2022/06/29 15:30:15;;;;;;;;;;;27.00;88.70;;;;;;5033357;28;19931;-52
2022/06/29 15:33:00;;;;;;;;;;;26.90;88.10;;;;;;5033258;28;19920;-55
2022/06/29 15:38:47;;;;;;;;;;;27.00;88.00;;;;;;5033657;28;19963;-57
2022/06/29 15:41:31;;;;;;;;;;;26.70;88.80;;;;;;5032846;28;19989;-55
2022/06/29 15:44:16;;;;;;;;;;;26.40;89.20;;;;;;5032662;28;19935;-55
2022/06/29 15:47:00;;;;;;;;;;;26.20;89.60;;;;;;5030734;28;20012;-54
2022/06/29 15:49:44;;;;;;;;;;;26.00;90.00;;;;;;5032533;28;20396;-54
2022/06/29 15:52:29;;;;;;;;;;;25.90;90.40;;;;;;5027694;28;19916;-56
2022/06/29 15:58:16;;;;;;;;;;;25.80;90.60;;;;;;5033275;28;20459;-51
2022/06/29 16:01:00;;;;;;;;;;;25.80;90.50;;;;;;5033497;28;19916;-54
2022/06/29 16:03:44;;;;;;;;;;;25.90;90.50;;;;;;5032643;28;20007;-55
2022/06/29 16:06:29;;;;;;;;;;;26.00;90.40;;;;;;5017654;28;19955;-53
2022/06/29 16:09:13;;;;;;;;;;;26.00;90.50;;;;;;5033100;28;19955;-56
2022/06/29 16:12:06;;;;;;;;;;;26.00;90.20;;;;;;5036309;28;19993;-54
2022/06/29 16:14:50;;;;;;;;;;;25.70;90.50;;;;;;5035686;28;20059;-52
2022/06/29 16:17:36;;;;;;;;;;;25.70;90.60;;;;;;5035780;28;20009;-55
2022/06/29 16:20:21;;;;;;;;;;;25.80;90.70;;;;;;5036859;28;20288;-56
2022/06/29 16:23:05;;;;;;;;;;;26.00;90.60;;;;;;5036059;28;19916;-55
2022/06/29 16:25:49;;;;;;;;;;;26.20;90.60;;;;;;5035499;28;20356;-55
2022/06/29 16:28:36;;;;;;;;;;;26.30;90.50;;;;;;5035338;28;19937;-56
2022/06/29 16:31:20;;;;;;;;;;;26.30;90.30;;;;;;5036549;28;19920;-54
2022/06/29 16:34:04;;;;;;;;;;;26.30;90.40;;;;;;5036028;28;19916;-52